sensor_id;sensor_type;location;lat;lon;timestamp;P1;durP1;ratioP1;P2;durP2;ratioP2
7398;SDS011;3740;50.700;7.184;2023-04-25T00:01:21;9.20;;;5.10;;
7398;SDS011;3740;50.700;7.184;2023-04-25T00:03:47;8.20;;;5.37;;
7398;SDS011;3740;50.700;7.184;2023-04-25T00:06:13;6.83;;;4.47;;
7398;SDS011;3740;50.700;7.184;2023-04-25T00:08:39;8.93;;;4.83;;
7398;SDS011;3740;50.700;7.184;2023-04-25T00:11:05;6.77;;;4.73;;
7398;SDS011;3740;50.700;7.184;2023-04-25T00:13:30;8.20;;;4.90;;
7398;SDS011;3740;50.700;7.184;2023-04-25T00:15:56;10.40;;;5.23;;
7398;SDS011;3740;50.700;7.184;2023-04-25T00:18:22;7.97;;;5.00;;
7398;SDS011;3740;50.700;7.184;2023-04-25T00:20:48;8.93;;;5.23;;
7398;SDS011;3740;50.700;7.184;2023-04-25T00:23:14;9.70;;;5.03;;
7398;SDS011;3740;50.700;7.184;2023-04-25T00:25:47;10.20;;;5.20;;
7398;SDS011;3740;50.700;7.184;2023-04-25T00:28:13;8.03;;;5.53;;
7398;SDS011;3740;50.700;7.184;2023-04-25T00:30:40;7.77;;;4.80;;
7398;SDS011;3740;50.700;7.184;2023-04-25T00:33:06;7.80;;;5.17;;
7398;SDS011;3740;50.700;7.184;2023-04-25T00:35:32;8.50;;;5.20;;
7398;SDS011;3740;50.700;7.184;2023-04-25T00:37:58;10.53;;;5.40;;
7398;SDS011;3740;50.700;7.184;2023-04-25T00:40:23;9.33;;;5.23;;
7398;SDS011;3740;50.700;7.184;2023-04-25T00:42:49;10.87;;;5.43;;
7398;SDS011;3740;50.700;7.184;2023-04-25T00:45:17;9.70;;;5.80;;
7398;SDS011;3740;50.700;7.184;2023-04-25T00:47:43;9.73;;;5.27;;
7398;SDS011;3740;50.700;7.184;2023-04-25T00:50:09;8.57;;;5.43;;
7398;SDS011;3740;50.700;7.184;2023-04-25T00:52:37;7.90;;;5.20;;
7398;SDS011;3740;50.700;7.184;2023-04-25T00:55:05;10.33;;;5.53;;
7398;SDS011;3740;50.700;7.184;2023-04-25T00:57:31;10.10;;;6.23;;
7398;SDS011;3740;50.700;7.184;2023-04-25T00:59:57;11.33;;;5.83;;
7398;SDS011;3740;50.700;7.184;2023-04-25T01:02:23;10.73;;;5.83;;
7398;SDS011;3740;50.700;7.184;2023-04-25T01:04:50;7.67;;;5.10;;
7398;SDS011;3740;50.700;7.184;2023-04-25T01:07:16;8.90;;;5.80;;
7398;SDS011;3740;50.700;7.184;2023-04-25T01:09:42;7.20;;;5.27;;
7398;SDS011;3740;50.700;7.184;2023-04-25T01:12:07;8.10;;;5.20;;
7398;SDS011;3740;50.700;7.184;2023-04-25T01:14:33;8.67;;;5.57;;
7398;SDS011;3740;50.700;7.184;2023-04-25T01:16:59;7.77;;;5.30;;
7398;SDS011;3740;50.700;7.184;2023-04-25T01:19:24;9.43;;;5.43;;
7398;SDS011;3740;50.700;7.184;2023-04-25T01:21:50;7.70;;;5.17;;
7398;SDS011;3740;50.700;7.184;2023-04-25T01:24:16;8.30;;;5.13;;
7398;SDS011;3740;50.700;7.184;2023-04-25T01:26:42;10.27;;;5.90;;
7398;SDS011;3740;50.700;7.184;2023-04-25T01:29:15;8.70;;;6.23;;
7398;SDS011;3740;50.700;7.184;2023-04-25T01:31:42;10.43;;;5.90;;
7398;SDS011;3740;50.700;7.184;2023-04-25T01:34:08;6.93;;;5.93;;
7398;SDS011;3740;50.700;7.184;2023-04-25T01:36:34;9.63;;;5.43;;
7398;SDS011;3740;50.700;7.184;2023-04-25T01:39:00;9.27;;;5.10;;
7398;SDS011;3740;50.700;7.184;2023-04-25T01:41:26;8.73;;;5.57;;
7398;SDS011;3740;50.700;7.184;2023-04-25T01:43:52;6.27;;;5.40;;
7398;SDS011;3740;50.700;7.184;2023-04-25T01:46:17;8.13;;;5.60;;
7398;SDS011;3740;50.700;7.184;2023-04-25T01:48:43;8.23;;;5.60;;
7398;SDS011;3740;50.700;7.184;2023-04-25T01:51:09;6.47;;;5.70;;
7398;SDS011;3740;50.700;7.184;2023-04-25T01:53:36;8.23;;;5.43;;
7398;SDS011;3740;50.700;7.184;2023-04-25T01:56:02;7.47;;;5.30;;
7398;SDS011;3740;50.700;7.184;2023-04-25T01:58:28;10.20;;;5.57;;
7398;SDS011;3740;50.700;7.184;2023-04-25T02:00:54;9.80;;;6.17;;
7398;SDS011;3740;50.700;7.184;2023-04-25T02:03:19;10.40;;;6.60;;
7398;SDS011;3740;50.700;7.184;2023-04-25T02:05:45;8.93;;;6.53;;
7398;SDS011;3740;50.700;7.184;2023-04-25T02:08:10;8.63;;;6.70;;
7398;SDS011;3740;50.700;7.184;2023-04-25T02:10:36;6.83;;;6.00;;
7398;SDS011;3740;50.700;7.184;2023-04-25T02:13:01;8.27;;;7.13;;
7398;SDS011;3740;50.700;7.184;2023-04-25T02:15:29;10.37;;;6.60;;
7398;SDS011;3740;50.700;7.184;2023-04-25T02:17:54;10.37;;;7.07;;
7398;SDS011;3740;50.700;7.184;2023-04-25T02:20:21;8.83;;;6.50;;
7398;SDS011;3740;50.700;7.184;2023-04-25T02:22:48;9.53;;;6.30;;
7398;SDS011;3740;50.700;7.184;2023-04-25T02:25:13;9.17;;;6.33;;
7398;SDS011;3740;50.700;7.184;2023-04-25T02:27:40;7.97;;;6.00;;
7398;SDS011;3740;50.700;7.184;2023-04-25T02:30:06;7.13;;;6.30;;
7398;SDS011;3740;50.700;7.184;2023-04-25T02:32:32;8.87;;;6.30;;
7398;SDS011;3740;50.700;7.184;2023-04-25T02:34:59;10.80;;;6.03;;
7398;SDS011;3740;50.700;7.184;2023-04-25T02:37:33;10.60;;;5.97;;
7398;SDS011;3740;50.700;7.184;2023-04-25T02:39:59;9.57;;;6.13;;
7398;SDS011;3740;50.700;7.184;2023-04-25T02:42:25;8.47;;;6.03;;
7398;SDS011;3740;50.700;7.184;2023-04-25T02:44:51;7.47;;;5.63;;
7398;SDS011;3740;50.700;7.184;2023-04-25T02:47:17;9.20;;;5.50;;
7398;SDS011;3740;50.700;7.184;2023-04-25T02:49:42;8.23;;;5.70;;
7398;SDS011;3740;50.700;7.184;2023-04-25T02:52:08;8.90;;;6.10;;
7398;SDS011;3740;50.700;7.184;2023-04-25T02:54:33;8.53;;;6.40;;
7398;SDS011;3740;50.700;7.184;2023-04-25T02:56:59;9.00;;;5.80;;
7398;SDS011;3740;50.700;7.184;2023-04-25T02:59:25;9.13;;;6.30;;
7398;SDS011;3740;50.700;7.184;2023-04-25T03:01:51;9.13;;;6.30;;
7398;SDS011;3740;50.700;7.184;2023-04-25T03:04:17;9.23;;;6.20;;
7398;SDS011;3740;50.700;7.184;2023-04-25T03:06:44;9.37;;;6.07;;
7398;SDS011;3740;50.700;7.184;2023-04-25T03:09:09;9.63;;;6.00;;
7398;SDS011;3740;50.700;7.184;2023-04-25T03:11:36;11.47;;;6.30;;
7398;SDS011;3740;50.700;7.184;2023-04-25T03:14:03;11.10;;;5.87;;
7398;SDS011;3740;50.700;7.184;2023-04-25T03:16:29;13.70;;;6.47;;
7398;SDS011;3740;50.700;7.184;2023-04-25T03:18:55;14.90;;;7.23;;
7398;SDS011;3740;50.700;7.184;2023-04-25T03:21:21;8.47;;;6.30;;
7398;SDS011;3740;50.700;7.184;2023-04-25T03:23:47;12.73;;;6.43;;
7398;SDS011;3740;50.700;7.184;2023-04-25T03:26:12;10.87;;;6.67;;
7398;SDS011;3740;50.700;7.184;2023-04-25T03:28:38;13.87;;;6.30;;
7398;SDS011;3740;50.700;7.184;2023-04-25T03:31:05;10.27;;;6.57;;
7398;SDS011;3740;50.700;7.184;2023-04-25T03:33:30;10.67;;;6.43;;
7398;SDS011;3740;50.700;7.184;2023-04-25T03:35:56;9.70;;;6.60;;
7398;SDS011;3740;50.700;7.184;2023-04-25T03:38:22;7.33;;;5.97;;
7398;SDS011;3740;50.700;7.184;2023-04-25T03:40:48;10.60;;;7.20;;
7398;SDS011;3740;50.700;7.184;2023-04-25T03:43:13;12.63;;;6.87;;
7398;SDS011;3740;50.700;7.184;2023-04-25T03:45:39;10.53;;;6.70;;
7398;SDS011;3740;50.700;7.184;2023-04-25T03:48:05;11.47;;;6.03;;
7398;SDS011;3740;50.700;7.184;2023-04-25T03:50:30;12.77;;;6.93;;
7398;SDS011;3740;50.700;7.184;2023-04-25T03:52:56;10.07;;;6.87;;
7398;SDS011;3740;50.700;7.184;2023-04-25T03:55:21;10.23;;;6.67;;
7398;SDS011;3740;50.700;7.184;2023-04-25T03:57:47;10.40;;;7.10;;
7398;SDS011;3740;50.700;7.184;2023-04-25T04:00:12;8.80;;;6.47;;
7398;SDS011;3740;50.700;7.184;2023-04-25T04:02:39;12.30;;;7.30;;
7398;SDS011;3740;50.700;7.184;2023-04-25T04:05:04;12.43;;;6.43;;
7398;SDS011;3740;50.700;7.184;2023-04-25T04:07:30;12.40;;;6.83;;
7398;SDS011;3740;50.700;7.184;2023-04-25T04:09:57;12.87;;;6.60;;
7398;SDS011;3740;50.700;7.184;2023-04-25T04:12:23;8.93;;;6.20;;
7398;SDS011;3740;50.700;7.184;2023-04-25T04:14:49;9.47;;;6.37;;
7398;SDS011;3740;50.700;7.184;2023-04-25T04:17:14;14.07;;;6.77;;
7398;SDS011;3740;50.700;7.184;2023-04-25T04:19:40;12.37;;;7.00;;
7398;SDS011;3740;50.700;7.184;2023-04-25T04:22:06;11.97;;;6.40;;
7398;SDS011;3740;50.700;7.184;2023-04-25T04:24:32;10.90;;;6.20;;
7398;SDS011;3740;50.700;7.184;2023-04-25T04:26:57;11.87;;;6.63;;
7398;SDS011;3740;50.700;7.184;2023-04-25T04:29:23;12.97;;;6.53;;
7398;SDS011;3740;50.700;7.184;2023-04-25T04:31:50;10.70;;;6.80;;
7398;SDS011;3740;50.700;7.184;2023-04-25T04:34:17;11.90;;;6.80;;
7398;SDS011;3740;50.700;7.184;2023-04-25T04:36:43;12.67;;;7.07;;
7398;SDS011;3740;50.700;7.184;2023-04-25T04:39:11;10.33;;;6.40;;
7398;SDS011;3740;50.700;7.184;2023-04-25T04:41:37;12.80;;;6.57;;
7398;SDS011;3740;50.700;7.184;2023-04-25T04:44:03;13.67;;;6.80;;
7398;SDS011;3740;50.700;7.184;2023-04-25T04:46:28;10.63;;;6.43;;
7398;SDS011;3740;50.700;7.184;2023-04-25T04:48:55;10.37;;;6.70;;
7398;SDS011;3740;50.700;7.184;2023-04-25T04:51:21;10.67;;;6.90;;
7398;SDS011;3740;50.700;7.184;2023-04-25T04:53:47;13.73;;;7.57;;
7398;SDS011;3740;50.700;7.184;2023-04-25T04:56:12;12.83;;;7.53;;
7398;SDS011;3740;50.700;7.184;2023-04-25T04:58:38;14.40;;;7.63;;
7398;SDS011;3740;50.700;7.184;2023-04-25T05:01:03;13.90;;;7.43;;
7398;SDS011;3740;50.700;7.184;2023-04-25T05:03:29;13.37;;;7.70;;
7398;SDS011;3740;50.700;7.184;2023-04-25T05:05:54;9.27;;;6.70;;
7398;SDS011;3740;50.700;7.184;2023-04-25T05:08:20;12.90;;;7.40;;
7398;SDS011;3740;50.700;7.184;2023-04-25T05:10:46;16.30;;;8.00;;
7398;SDS011;3740;50.700;7.184;2023-04-25T05:13:11;12.40;;;7.63;;
7398;SDS011;3740;50.700;7.184;2023-04-25T05:15:37;13.87;;;7.13;;
7398;SDS011;3740;50.700;7.184;2023-04-25T05:18:02;11.67;;;7.30;;
7398;SDS011;3740;50.700;7.184;2023-04-25T05:20:28;11.67;;;7.73;;
7398;SDS011;3740;50.700;7.184;2023-04-25T05:22:53;15.87;;;7.83;;
7398;SDS011;3740;50.700;7.184;2023-04-25T05:25:20;13.17;;;8.03;;
7398;SDS011;3740;50.700;7.184;2023-04-25T05:27:45;12.70;;;7.23;;
7398;SDS011;3740;50.700;7.184;2023-04-25T05:30:11;13.33;;;8.13;;
7398;SDS011;3740;50.700;7.184;2023-04-25T05:32:36;13.70;;;7.87;;
7398;SDS011;3740;50.700;7.184;2023-04-25T05:35:02;13.23;;;8.47;;
7398;SDS011;3740;50.700;7.184;2023-04-25T05:37:28;14.17;;;7.60;;
7398;SDS011;3740;50.700;7.184;2023-04-25T05:39:56;14.57;;;8.77;;
7398;SDS011;3740;50.700;7.184;2023-04-25T05:42:21;16.53;;;8.97;;
7398;SDS011;3740;50.700;7.184;2023-04-25T05:44:47;15.13;;;8.00;;
7398;SDS011;3740;50.700;7.184;2023-04-25T05:47:12;11.03;;;8.10;;
7398;SDS011;3740;50.700;7.184;2023-04-25T05:49:38;15.37;;;8.97;;
7398;SDS011;3740;50.700;7.184;2023-04-25T05:52:03;12.90;;;8.53;;
7398;SDS011;3740;50.700;7.184;2023-04-25T05:54:29;13.20;;;8.67;;
7398;SDS011;3740;50.700;7.184;2023-04-25T05:56:56;12.97;;;8.77;;
7398;SDS011;3740;50.700;7.184;2023-04-25T05:59:22;13.23;;;8.47;;
7398;SDS011;3740;50.700;7.184;2023-04-25T06:01:47;13.87;;;8.33;;
7398;SDS011;3740;50.700;7.184;2023-04-25T06:04:13;15.33;;;8.60;;
7398;SDS011;3740;50.700;7.184;2023-04-25T06:06:38;12.30;;;8.60;;
7398;SDS011;3740;50.700;7.184;2023-04-25T06:09:04;16.03;;;9.47;;
7398;SDS011;3740;50.700;7.184;2023-04-25T06:11:29;15.40;;;8.67;;
7398;SDS011;3740;50.700;7.184;2023-04-25T06:13:55;16.90;;;8.93;;
7398;SDS011;3740;50.700;7.184;2023-04-25T06:16:20;15.67;;;8.37;;
7398;SDS011;3740;50.700;7.184;2023-04-25T06:18:46;12.97;;;8.37;;
7398;SDS011;3740;50.700;7.184;2023-04-25T06:21:12;17.47;;;9.30;;
7398;SDS011;3740;50.700;7.184;2023-04-25T06:23:37;12.40;;;8.37;;
7398;SDS011;3740;50.700;7.184;2023-04-25T06:26:03;15.17;;;8.50;;
7398;SDS011;3740;50.700;7.184;2023-04-25T06:28:28;15.20;;;8.67;;
7398;SDS011;3740;50.700;7.184;2023-04-25T06:30:54;16.67;;;8.20;;
7398;SDS011;3740;50.700;7.184;2023-04-25T06:33:19;15.27;;;8.37;;
7398;SDS011;3740;50.700;7.184;2023-04-25T06:35:46;16.10;;;8.50;;
7398;SDS011;3740;50.700;7.184;2023-04-25T06:38:12;12.10;;;7.80;;
7398;SDS011;3740;50.700;7.184;2023-04-25T06:40:37;12.77;;;8.23;;
7398;SDS011;3740;50.700;7.184;2023-04-25T06:43:03;14.53;;;8.30;;
7398;SDS011;3740;50.700;7.184;2023-04-25T06:45:29;13.70;;;8.13;;
7398;SDS011;3740;50.700;7.184;2023-04-25T06:47:55;12.43;;;8.80;;
7398;SDS011;3740;50.700;7.184;2023-04-25T06:50:20;13.70;;;8.00;;
7398;SDS011;3740;50.700;7.184;2023-04-25T06:52:46;13.03;;;6.93;;
7398;SDS011;3740;50.700;7.184;2023-04-25T06:55:12;14.50;;;7.40;;
7398;SDS011;3740;50.700;7.184;2023-04-25T06:57:37;16.97;;;6.97;;
7398;SDS011;3740;50.700;7.184;2023-04-25T07:00:03;10.73;;;7.60;;
7398;SDS011;3740;50.700;7.184;2023-04-25T07:02:36;14.93;;;7.10;;
7398;SDS011;3740;50.700;7.184;2023-04-25T07:05:02;15.83;;;7.90;;
7398;SDS011;3740;50.700;7.184;2023-04-25T07:07:29;18.10;;;7.87;;
7398;SDS011;3740;50.700;7.184;2023-04-25T07:09:55;17.63;;;7.93;;
7398;SDS011;3740;50.700;7.184;2023-04-25T07:12:21;13.20;;;5.93;;
7398;SDS011;3740;50.700;7.184;2023-04-25T07:14:46;12.73;;;5.97;;
7398;SDS011;3740;50.700;7.184;2023-04-25T07:17:12;15.33;;;6.70;;
7398;SDS011;3740;50.700;7.184;2023-04-25T07:19:37;11.73;;;6.03;;
7398;SDS011;3740;50.700;7.184;2023-04-25T07:22:04;16.43;;;5.80;;
7398;SDS011;3740;50.700;7.184;2023-04-25T07:24:30;15.37;;;5.77;;
7398;SDS011;3740;50.700;7.184;2023-04-25T07:26:56;13.73;;;6.30;;
7398;SDS011;3740;50.700;7.184;2023-04-25T07:29:22;11.47;;;5.70;;
7398;SDS011;3740;50.700;7.184;2023-04-25T07:31:48;11.80;;;5.57;;
7398;SDS011;3740;50.700;7.184;2023-04-25T07:34:14;14.17;;;5.50;;
7398;SDS011;3740;50.700;7.184;2023-04-25T07:36:40;11.20;;;4.97;;
7398;SDS011;3740;50.700;7.184;2023-04-25T07:39:06;16.93;;;7.40;;
7398;SDS011;3740;50.700;7.184;2023-04-25T07:41:32;14.20;;;7.63;;
7398;SDS011;3740;50.700;7.184;2023-04-25T07:43:58;17.40;;;7.60;;
7398;SDS011;3740;50.700;7.184;2023-04-25T07:46:23;11.43;;;7.40;;
7398;SDS011;3740;50.700;7.184;2023-04-25T07:48:49;15.60;;;7.50;;
7398;SDS011;3740;50.700;7.184;2023-04-25T07:51:14;14.63;;;6.40;;
7398;SDS011;3740;50.700;7.184;2023-04-25T07:53:40;12.27;;;6.67;;
7398;SDS011;3740;50.700;7.184;2023-04-25T07:56:06;15.63;;;6.20;;
7398;SDS011;3740;50.700;7.184;2023-04-25T07:58:31;11.40;;;5.67;;
7398;SDS011;3740;50.700;7.184;2023-04-25T08:00:57;11.77;;;5.67;;
7398;SDS011;3740;50.700;7.184;2023-04-25T08:03:22;12.40;;;6.20;;
7398;SDS011;3740;50.700;7.184;2023-04-25T08:05:48;16.83;;;6.40;;
7398;SDS011;3740;50.700;7.184;2023-04-25T08:08:13;9.87;;;5.30;;
7398;SDS011;3740;50.700;7.184;2023-04-25T08:10:39;12.47;;;5.90;;
7398;SDS011;3740;50.700;7.184;2023-04-25T08:13:05;9.40;;;5.53;;
7398;SDS011;3740;50.700;7.184;2023-04-25T08:15:30;15.23;;;5.73;;
7398;SDS011;3740;50.700;7.184;2023-04-25T08:17:56;10.67;;;5.63;;
7398;SDS011;3740;50.700;7.184;2023-04-25T08:20:21;13.17;;;5.53;;
7398;SDS011;3740;50.700;7.184;2023-04-25T08:22:47;10.93;;;5.20;;
7398;SDS011;3740;50.700;7.184;2023-04-25T08:25:13;10.13;;;4.90;;
7398;SDS011;3740;50.700;7.184;2023-04-25T08:27:39;7.97;;;4.77;;
7398;SDS011;3740;50.700;7.184;2023-04-25T08:30:05;10.83;;;4.63;;
7398;SDS011;3740;50.700;7.184;2023-04-25T08:32:33;9.00;;;5.00;;
7398;SDS011;3740;50.700;7.184;2023-04-25T08:34:58;9.93;;;4.67;;
7398;SDS011;3740;50.700;7.184;2023-04-25T08:37:24;8.87;;;4.60;;
7398;SDS011;3740;50.700;7.184;2023-04-25T08:39:50;13.07;;;4.80;;
7398;SDS011;3740;50.700;7.184;2023-04-25T08:42:20;10.80;;;4.77;;
7398;SDS011;3740;50.700;7.184;2023-04-25T08:44:48;7.63;;;4.20;;
7398;SDS011;3740;50.700;7.184;2023-04-25T08:47:14;10.40;;;4.10;;
7398;SDS011;3740;50.700;7.184;2023-04-25T08:49:39;9.13;;;3.90;;
7398;SDS011;3740;50.700;7.184;2023-04-25T08:52:10;7.40;;;3.33;;
7398;SDS011;3740;50.700;7.184;2023-04-25T08:54:39;7.57;;;3.90;;
7398;SDS011;3740;50.700;7.184;2023-04-25T08:57:09;10.03;;;4.13;;
7398;SDS011;3740;50.700;7.184;2023-04-25T08:59:35;10.60;;;4.90;;
7398;SDS011;3740;50.700;7.184;2023-04-25T09:02:02;10.47;;;4.53;;
7398;SDS011;3740;50.700;7.184;2023-04-25T09:04:29;8.87;;;4.20;;
7398;SDS011;3740;50.700;7.184;2023-04-25T09:06:56;11.80;;;4.13;;
7398;SDS011;3740;50.700;7.184;2023-04-25T09:09:22;8.13;;;3.90;;
7398;SDS011;3740;50.700;7.184;2023-04-25T09:11:48;9.33;;;4.07;;
7398;SDS011;3740;50.700;7.184;2023-04-25T09:14:18;9.97;;;4.23;;
7398;SDS011;3740;50.700;7.184;2023-04-25T09:19:34;7.97;;;4.20;;
7398;SDS011;3740;50.700;7.184;2023-04-25T09:22:02;8.27;;;4.17;;
7398;SDS011;3740;50.700;7.184;2023-04-25T09:27:09;10.17;;;4.00;;
7398;SDS011;3740;50.700;7.184;2023-04-25T09:29:37;7.30;;;3.37;;
7398;SDS011;3740;50.700;7.184;2023-04-25T09:32:11;5.80;;;3.20;;
7398;SDS011;3740;50.700;7.184;2023-04-25T09:34:40;7.80;;;3.50;;
7398;SDS011;3740;50.700;7.184;2023-04-25T09:37:09;6.40;;;3.73;;
7398;SDS011;3740;50.700;7.184;2023-04-25T09:39:36;6.27;;;4.00;;
7398;SDS011;3740;50.700;7.184;2023-04-25T09:42:03;8.50;;;3.23;;
7398;SDS011;3740;50.700;7.184;2023-04-25T09:44:29;7.60;;;4.07;;
7398;SDS011;3740;50.700;7.184;2023-04-25T09:46:54;6.50;;;3.37;;
7398;SDS011;3740;50.700;7.184;2023-04-25T09:49:20;6.43;;;3.33;;
7398;SDS011;3740;50.700;7.184;2023-04-25T09:51:59;6.23;;;3.50;;
7398;SDS011;3740;50.700;7.184;2023-04-25T09:54:25;4.63;;;3.00;;
7398;SDS011;3740;50.700;7.184;2023-04-25T09:56:52;6.73;;;3.30;;
7398;SDS011;3740;50.700;7.184;2023-04-25T09:59:21;6.47;;;3.13;;
7398;SDS011;3740;50.700;7.184;2023-04-25T10:01:49;6.27;;;3.33;;
7398;SDS011;3740;50.700;7.184;2023-04-25T10:04:19;8.23;;;4.00;;
7398;SDS011;3740;50.700;7.184;2023-04-25T10:06:50;7.33;;;3.70;;
7398;SDS011;3740;50.700;7.184;2023-04-25T10:09:19;6.70;;;2.90;;
7398;SDS011;3740;50.700;7.184;2023-04-25T10:11:46;7.63;;;3.10;;
7398;SDS011;3740;50.700;7.184;2023-04-25T10:14:13;6.57;;;3.33;;
7398;SDS011;3740;50.700;7.184;2023-04-25T10:16:39;5.27;;;3.13;;
7398;SDS011;3740;50.700;7.184;2023-04-25T10:19:06;6.57;;;3.60;;
7398;SDS011;3740;50.700;7.184;2023-04-25T10:21:32;7.90;;;3.97;;
7398;SDS011;3740;50.700;7.184;2023-04-25T10:24:00;8.80;;;3.83;;
7398;SDS011;3740;50.700;7.184;2023-04-25T10:26:26;7.27;;;3.77;;
7398;SDS011;3740;50.700;7.184;2023-04-25T10:28:58;6.67;;;3.53;;
7398;SDS011;3740;50.700;7.184;2023-04-25T10:31:26;9.67;;;4.30;;
7398;SDS011;3740;50.700;7.184;2023-04-25T10:33:52;7.77;;;3.47;;
7398;SDS011;3740;50.700;7.184;2023-04-25T10:36:20;7.13;;;3.90;;
7398;SDS011;3740;50.700;7.184;2023-04-25T10:38:47;7.83;;;3.80;;
7398;SDS011;3740;50.700;7.184;2023-04-25T10:41:15;7.30;;;4.37;;
7398;SDS011;3740;50.700;7.184;2023-04-25T10:43:44;8.07;;;4.80;;
7398;SDS011;3740;50.700;7.184;2023-04-25T10:46:14;7.83;;;3.80;;
7398;SDS011;3740;50.700;7.184;2023-04-25T10:48:47;10.10;;;4.07;;
7398;SDS011;3740;50.700;7.184;2023-04-25T10:54:03;6.07;;;3.70;;
7398;SDS011;3740;50.700;7.184;2023-04-25T10:56:30;9.13;;;5.13;;
7398;SDS011;3740;50.700;7.184;2023-04-25T11:01:42;9.53;;;5.40;;
7398;SDS011;3740;50.700;7.184;2023-04-25T11:09:36;7.13;;;4.33;;
7398;SDS011;3740;50.700;7.184;2023-04-25T11:12:04;7.43;;;4.37;;
7398;SDS011;3740;50.700;7.184;2023-04-25T11:14:31;8.77;;;4.40;;
7398;SDS011;3740;50.700;7.184;2023-04-25T11:16:57;11.50;;;4.57;;
7398;SDS011;3740;50.700;7.184;2023-04-25T11:19:24;9.33;;;3.90;;
7398;SDS011;3740;50.700;7.184;2023-04-25T11:21:50;9.00;;;3.93;;
7398;SDS011;3740;50.700;7.184;2023-04-25T11:24:19;8.20;;;4.10;;
7398;SDS011;3740;50.700;7.184;2023-04-25T11:26:50;9.70;;;4.00;;
7398;SDS011;3740;50.700;7.184;2023-04-25T11:29:15;5.00;;;3.40;;
7398;SDS011;3740;50.700;7.184;2023-04-25T11:31:43;7.87;;;3.80;;
7398;SDS011;3740;50.700;7.184;2023-04-25T11:34:10;9.77;;;4.50;;
7398;SDS011;3740;50.700;7.184;2023-04-25T11:36:36;9.30;;;4.17;;
7398;SDS011;3740;50.700;7.184;2023-04-25T11:39:04;7.10;;;4.20;;
7398;SDS011;3740;50.700;7.184;2023-04-25T11:41:30;6.93;;;3.63;;
7398;SDS011;3740;50.700;7.184;2023-04-25T11:43:56;6.67;;;3.90;;
7398;SDS011;3740;50.700;7.184;2023-04-25T11:46:22;4.93;;;3.03;;
7398;SDS011;3740;50.700;7.184;2023-04-25T11:48:47;6.03;;;3.20;;
7398;SDS011;3740;50.700;7.184;2023-04-25T11:51:13;6.23;;;3.57;;
7398;SDS011;3740;50.700;7.184;2023-04-25T11:53:42;6.57;;;3.50;;
7398;SDS011;3740;50.700;7.184;2023-04-25T11:56:10;5.83;;;3.40;;
7398;SDS011;3740;50.700;7.184;2023-04-25T12:01:31;9.67;;;4.30;;
7398;SDS011;3740;50.700;7.184;2023-04-25T12:03:57;8.40;;;3.80;;
7398;SDS011;3740;50.700;7.184;2023-04-25T12:06:25;8.70;;;5.00;;
7398;SDS011;3740;50.700;7.184;2023-04-25T12:08:59;12.20;;;9.00;;
7398;SDS011;3740;50.700;7.184;2023-04-25T12:11:31;7.30;;;4.10;;
7398;SDS011;3740;50.700;7.184;2023-04-25T12:14:01;10.00;;;5.70;;
7398;SDS011;3740;50.700;7.184;2023-04-25T12:16:28;8.67;;;5.00;;
7398;SDS011;3740;50.700;7.184;2023-04-25T12:18:55;7.97;;;4.60;;
7398;SDS011;3740;50.700;7.184;2023-04-25T12:21:22;4.50;;;3.03;;
7398;SDS011;3740;50.700;7.184;2023-04-25T12:23:47;5.27;;;3.40;;
7398;SDS011;3740;50.700;7.184;2023-04-25T12:26:13;6.20;;;2.70;;
7398;SDS011;3740;50.700;7.184;2023-04-25T12:28:39;6.17;;;2.80;;
7398;SDS011;3740;50.700;7.184;2023-04-25T12:31:05;5.93;;;2.90;;
7398;SDS011;3740;50.700;7.184;2023-04-25T12:33:32;4.83;;;2.77;;
7398;SDS011;3740;50.700;7.184;2023-04-25T12:35:59;5.83;;;2.90;;
7398;SDS011;3740;50.700;7.184;2023-04-25T12:38:29;4.90;;;2.80;;
7398;SDS011;3740;50.700;7.184;2023-04-25T12:40:56;6.90;;;2.90;;
7398;SDS011;3740;50.700;7.184;2023-04-25T12:43:24;5.10;;;2.80;;
7398;SDS011;3740;50.700;7.184;2023-04-25T12:45:50;5.67;;;3.00;;
7398;SDS011;3740;50.700;7.184;2023-04-25T12:48:17;6.20;;;3.00;;
7398;SDS011;3740;50.700;7.184;2023-04-25T12:50:43;7.40;;;3.30;;
7398;SDS011;3740;50.700;7.184;2023-04-25T12:53:08;7.33;;;4.30;;
7398;SDS011;3740;50.700;7.184;2023-04-25T12:55:34;7.43;;;3.93;;
7398;SDS011;3740;50.700;7.184;2023-04-25T12:58:00;9.47;;;3.93;;
7398;SDS011;3740;50.700;7.184;2023-04-25T13:00:26;7.87;;;3.33;;
7398;SDS011;3740;50.700;7.184;2023-04-25T13:02:51;8.00;;;3.47;;
7398;SDS011;3740;50.700;7.184;2023-04-25T13:05:17;6.47;;;3.00;;
7398;SDS011;3740;50.700;7.184;2023-04-25T13:07:42;6.53;;;3.33;;
7398;SDS011;3740;50.700;7.184;2023-04-25T13:10:08;6.80;;;2.97;;
7398;SDS011;3740;50.700;7.184;2023-04-25T13:12:34;6.78;;;2.67;;
7398;SDS011;3740;50.700;7.184;2023-04-25T13:15:00;6.38;;;2.72;;
7398;SDS011;3740;50.700;7.184;2023-04-25T13:17:25;5.10;;;3.42;;
7398;SDS011;3740;50.700;7.184;2023-04-25T13:19:51;5.35;;;3.13;;
7398;SDS011;3740;50.700;7.184;2023-04-25T13:22:16;6.53;;;3.15;;
7398;SDS011;3740;50.700;7.184;2023-04-25T13:24:44;5.55;;;2.83;;
7398;SDS011;3740;50.700;7.184;2023-04-25T13:27:09;4.78;;;3.05;;
7398;SDS011;3740;50.700;7.184;2023-04-25T13:29:35;5.93;;;3.38;;
7398;SDS011;3740;50.700;7.184;2023-04-25T13:32:03;5.82;;;3.13;;
7398;SDS011;3740;50.700;7.184;2023-04-25T13:34:28;5.72;;;3.30;;
7398;SDS011;3740;50.700;7.184;2023-04-25T13:36:54;7.63;;;3.25;;
7398;SDS011;3740;50.700;7.184;2023-04-25T13:39:20;5.70;;;3.20;;
7398;SDS011;3740;50.700;7.184;2023-04-25T13:41:45;4.67;;;2.80;;
7398;SDS011;3740;50.700;7.184;2023-04-25T13:44:11;4.63;;;2.80;;
7398;SDS011;3740;50.700;7.184;2023-04-25T13:46:37;6.83;;;3.20;;
7398;SDS011;3740;50.700;7.184;2023-04-25T13:49:05;6.50;;;3.13;;
7398;SDS011;3740;50.700;7.184;2023-04-25T13:51:31;4.13;;;3.03;;
7398;SDS011;3740;50.700;7.184;2023-04-25T13:53:56;5.00;;;2.87;;
7398;SDS011;3740;50.700;7.184;2023-04-25T13:56:22;5.33;;;2.93;;
7398;SDS011;3740;50.700;7.184;2023-04-25T13:58:49;6.07;;;3.07;;
7398;SDS011;3740;50.700;7.184;2023-04-25T14:01:15;5.23;;;3.00;;
7398;SDS011;3740;50.700;7.184;2023-04-25T14:03:41;7.53;;;2.83;;
7398;SDS011;3740;50.700;7.184;2023-04-25T14:06:07;4.47;;;2.93;;
7398;SDS011;3740;50.700;7.184;2023-04-25T14:08:33;4.70;;;2.93;;
7398;SDS011;3740;50.700;7.184;2023-04-25T14:10:59;5.20;;;3.20;;
7398;SDS011;3740;50.700;7.184;2023-04-25T14:13:25;3.83;;;2.53;;
7398;SDS011;3740;50.700;7.184;2023-04-25T14:15:51;6.77;;;3.23;;
7398;SDS011;3740;50.700;7.184;2023-04-25T14:18:17;4.93;;;2.83;;
7398;SDS011;3740;50.700;7.184;2023-04-25T14:20:43;2.60;;;2.40;;
7398;SDS011;3740;50.700;7.184;2023-04-25T14:23:09;5.63;;;2.73;;
7398;SDS011;3740;50.700;7.184;2023-04-25T14:25:35;3.17;;;2.57;;
7398;SDS011;3740;50.700;7.184;2023-04-25T14:28:01;5.03;;;2.70;;
7398;SDS011;3740;50.700;7.184;2023-04-25T14:30:27;4.83;;;2.97;;
7398;SDS011;3740;50.700;7.184;2023-04-25T14:32:52;5.87;;;3.03;;
7398;SDS011;3740;50.700;7.184;2023-04-25T14:35:18;5.00;;;3.30;;
7398;SDS011;3740;50.700;7.184;2023-04-25T14:37:44;4.53;;;2.90;;
7398;SDS011;3740;50.700;7.184;2023-04-25T14:40:10;5.67;;;3.07;;
7398;SDS011;3740;50.700;7.184;2023-04-25T14:42:38;5.13;;;3.00;;
7398;SDS011;3740;50.700;7.184;2023-04-25T14:45:05;5.20;;;2.97;;
7398;SDS011;3740;50.700;7.184;2023-04-25T14:47:32;5.53;;;3.20;;
7398;SDS011;3740;50.700;7.184;2023-04-25T14:49:58;7.10;;;3.17;;
7398;SDS011;3740;50.700;7.184;2023-04-25T14:52:24;6.97;;;3.30;;
7398;SDS011;3740;50.700;7.184;2023-04-25T14:54:50;5.77;;;3.07;;
7398;SDS011;3740;50.700;7.184;2023-04-25T14:57:16;5.07;;;3.50;;
7398;SDS011;3740;50.700;7.184;2023-04-25T14:59:42;4.87;;;2.70;;
7398;SDS011;3740;50.700;7.184;2023-04-25T15:02:07;5.33;;;3.13;;
7398;SDS011;3740;50.700;7.184;2023-04-25T15:04:33;5.33;;;3.13;;
7398;SDS011;3740;50.700;7.184;2023-04-25T15:06:59;7.30;;;3.10;;
7398;SDS011;3740;50.700;7.184;2023-04-25T15:09:24;5.17;;;2.80;;
7398;SDS011;3740;50.700;7.184;2023-04-25T15:11:50;5.50;;;3.00;;
7398;SDS011;3740;50.700;7.184;2023-04-25T15:14:16;5.23;;;2.87;;
7398;SDS011;3740;50.700;7.184;2023-04-25T15:16:42;6.07;;;3.23;;
7398;SDS011;3740;50.700;7.184;2023-04-25T15:19:08;6.17;;;3.13;;
7398;SDS011;3740;50.700;7.184;2023-04-25T15:21:33;3.03;;;2.30;;
7398;SDS011;3740;50.700;7.184;2023-04-25T15:23:59;4.93;;;2.50;;